• Join FlightAware (Why Join?)
  • Login
  • US Flag 
03:13PM EDT


 

Airport Tracker/Info


-or-


 

Live Flight TrackerFlight Track Log ✈ TAM3856 ✈ 25-May-2013 ✈ SBCF / CNF - SBBR / BSB

Flight Track Log - Related Links

Times and Time Zones

All times are in EDT time to prevent confusion due to time zone crossing. See the TAM3856 flight status page for this flight to view local times or setup timezone preferences in your user account.

Time Position Orientation Groundspeed Altitude Reporting Facility
EDT Latitude Longitude Course Direction KTS MPH feet Rate Location/Type
09:10AM -19.6320 -43.9650 81° East  Level FlightAware
09:19AM -19.5141 -44.0915 314° West  Level Estimated
09:20AM -19.4509 -44.1597 314° West  Level Estimated
09:20AM -19.6320 -43.9650 314° West 2 2  Level FlightAware
09:22AM -19.5088 -44.0982 314° West  Level Estimated
09:23AM -19.4456 -44.1664 314° West  Level Estimated
09:24AM -19.3823 -44.2345 315° West  Level Estimated
09:24AM -19.6320 -43.9670 315° West 13 15  Level FlightAware
09:24AM -19.6330 -43.9670 180° South 11 13 360 Level FlightAware
09:25AM -19.6320 -43.9680 317° Northwest 12 14 360 Level FlightAware
09:25AM -19.6300 -43.9700 317° Northwest 19 22 360 Level FlightAware
09:26AM -19.6280 -43.9720 317° Northwest 21 24 420 Level FlightAware
09:26AM -19.6250 -43.9740 328° Northwest 23 26 480 Level FlightAware
09:27AM -19.6230 -43.9760 317° Northwest 22 25 480 Level FlightAware
09:28AM -19.6230 -43.9780 270° West 600 Level FlightAware
09:30AM -19.5008 -44.1100 314° West  Level Estimated
09:31AM -19.4375 -44.1781 315° West  Level Estimated
09:31AM -19.6240 -43.9780 315° West 8 9  Level FlightAware
09:31AM -19.6390 -43.9640 139° Southeast 162 186 2,600 3,660 Climbing FlightAware
09:32AM -19.6570 -43.9510 146° Southeast 171 197 3,500 1,560 Climbing FlightAware
09:32AM -19.6790 -43.9450 166° South 203 234 4,100 1,500 Climbing FlightAware
09:33AM -19.7080 -43.9350 162° South 244 281 4,900 1,620 Climbing FlightAware
09:33AM -19.7170 -43.9170 118° Southeast 266 306 5,300 2,520 Climbing FlightAware
09:33AM -19.7020 -43.8840 64° Northeast 277 319 6,800 3,000 Climbing FlightAware
09:34AM -19.6890 -43.8780 23° Northeast 280 322 7,300 3,300 Climbing FlightAware
09:34AM -19.6520 -43.8860 348° North 278 320 9,000 3,180 Climbing FlightAware
09:34AM -19.6350 -43.8960 331° Northwest 286 329 9,700 1,920 Climbing FlightAware
09:35AM -19.6020 -43.9210 324° Northwest 297 342 10,800 2,220 Climbing FlightAware
09:36AM -19.5800 -43.9790 292° West 328 377 12,300 3,180 Climbing FlightAware
09:36AM -19.5590 -44.0310 293° West 332 382 14,200 2,820 Climbing FlightAware
09:36AM -19.5360 -44.0520 319° Northwest 356 410 14,900 1,980 Climbing FlightAware
09:37AM -19.5190 -44.0580 342° North 370 426 15,200 2,220 Climbing FlightAware
09:37AM -19.4440 -44.0760 347° North 377 434 16,900 2,160 Climbing FlightAware
09:38AM -19.3730 -44.0930 347° North 379 436 18,300 2,220 Climbing FlightAware
09:39AM -19.2970 -44.1140 345° North 376 433 20,100 2,220 Climbing FlightAware
09:39AM -19.2500 -44.1600 317° Northwest 360 414 21,500 2,040 Climbing FlightAware
09:40AM -19.2290 -44.2270 288° West 360 414 22,800 1,920 Climbing FlightAware
09:41AM -19.2060 -44.3050 287° West 366 421 24,300 1,920 Climbing FlightAware
09:42AM -19.1860 -44.3750 287° West 370 426 25,600 1,680 Climbing FlightAware
09:42AM -19.1620 -44.4510 288° West 380 437 26,700 1,920 Climbing FlightAware
09:43AM -19.1160 -44.5070 311° West 381 438 28,400 2,220 Climbing FlightAware
09:44AM -19.0630 -44.5570 318° Northwest 379 436 29,700 1,920 Climbing FlightAware
09:44AM -19.0040 -44.6130 318° Northwest 378 435 31,100 1,620 Climbing FlightAware
09:45AM -18.9530 -44.6620 318° Northwest 374 430 32,000 660 Climbing FlightAware
09:46AM -18.9010 -44.7110 318° Northwest 374 430 32,000  Level FlightAware
09:46AM -18.8430 -44.7660 318° Northwest 378 435 32,000  Level FlightAware
09:47AM -18.7900 -44.8160 318° Northwest 385 443 32,000  Level FlightAware
09:48AM -18.7300 -44.8720 319° Northwest 391 450 32,000  Level FlightAware
09:49AM -18.6750 -44.9240 318° Northwest 393 452 32,000  Level FlightAware
09:49AM -18.6220 -44.9740 318° Northwest 392 451 32,000  Level FlightAware
09:50AM -18.5600 -45.0320 318° Northwest 391 450 32,000  Level FlightAware
09:51AM -18.5050 -45.0830 319° Northwest 387 445 32,000  Level FlightAware
09:51AM -18.4530 -45.1320 318° Northwest 387 445 32,000  Level FlightAware
09:52AM -18.3860 -45.1950 318° Northwest 384 442 32,000  Level FlightAware
09:53AM -18.3320 -45.2460 318° Northwest 383 441 32,000  Level FlightAware
09:53AM -18.2850 -45.2900 318° Northwest 384 442 32,000 -120 Level FlightAware
09:54AM -18.2190 -45.3520 318° Northwest 387 445 31,900  Descending FlightAware
09:55AM -18.1720 -45.3950 319° Northwest 389 448 32,000 60 Climbing FlightAware
09:56AM -18.1120 -45.4510 318° Northwest 393 452 32,000  Level FlightAware
09:56AM -18.0530 -45.5020 321° Northwest 394 453 32,000  Level FlightAware
09:57AM -18.0000 -45.5480 320° Northwest 392 451 32,000  Level FlightAware
09:58AM -17.9390 -45.6020 320° Northwest 390 449 32,000  Level FlightAware
09:59AM -17.8430 -45.6860 320° Northwest 387 445 32,000  Level FlightAware
10:00AM -17.7770 -45.7430 321° Northwest 386 444 32,000  Level FlightAware
10:00AM -17.7310 -45.7850 319° Northwest 386 444 32,000  Level FlightAware
10:01AM -17.7310 -45.7840 90° East 385 443 32,000  Level FlightAware
10:02AM -17.6140 -45.8860 320° Northwest 384 442 32,000  Level FlightAware
10:02AM -17.5540 -45.9380 320° Northwest 385 443 32,000  Level FlightAware
10:03AM -17.5130 -45.9750 319° Northwest 385 443 32,000  Level FlightAware
10:04AM -17.4560 -46.0250 320° Northwest 385 443 32,000  Level FlightAware
10:04AM -17.4130 -46.0630 320° Northwest 385 443 32,000  Level FlightAware
10:05AM -17.3410 -46.1260 320° Northwest 385 443 32,000  Level FlightAware
10:06AM -17.2990 -46.1630 320° Northwest 385 443 32,000  Level FlightAware
10:07AM -17.2420 -46.2130 320° Northwest 385 443 32,000  Level FlightAware
10:07AM -17.2010 -46.2490 320° Northwest 385 443 32,000  Level FlightAware
10:08AM -17.1300 -46.3110 320° Northwest 385 443 32,000  Level FlightAware
10:09AM -17.0880 -46.3480 320° Northwest 385 443 32,000  Level FlightAware
10:10AM -17.0440 -46.3870 320° Northwest 385 443 32,000  Level FlightAware
10:11AM -16.9880 -46.4360 320° Northwest 385 443 32,000  Level FlightAware
10:11AM -16.9340 -46.4830 320° Northwest 385 443 32,000 -1,320 Level FlightAware
10:14AM -16.8300 -46.6231 308° West  Level Estimated
10:15AM -16.7827 -46.6867 308° West  Level Estimated
10:16AM -16.7354 -46.7502 308° West  Level Estimated
10:17AM -16.6880 -46.8138 308° West  Level Estimated
10:18AM -16.6407 -46.8773 308° West  Level Estimated
10:19AM -16.5933 -46.9408 308° West  Level Estimated
10:20AM -16.5459 -47.0042 308° West  Level Estimated
10:21AM -16.4985 -47.0676 308° West  Level Estimated
10:22AM -16.4510 -47.1310 308° West  Level Estimated
10:22AM -16.1360 -47.5080 308° West 344 396 16,700  Level FlightAware
10:23AM -16.0840 -47.5630 315° West 336 387 15,200 -1,860 Descending FlightAware
10:24AM -16.0490 -47.6000 315° West 333 383 14,200 -1,800 Descending FlightAware
10:24AM -16.0020 -47.6490 315° West 326 375 12,800 -960 Descending FlightAware
10:26AM -15.9650 -47.7770 287° West 241 277 12,000 -360 Descending FlightAware
10:27AM -15.9680 -47.8240 266° West 228 262 12,000  Level FlightAware
10:27AM -15.9700 -47.8690 267° West 228 262 12,000 -60 Level FlightAware
10:29AM -15.9760 -47.9390 265° West 224 258 11,900 -60 Descending FlightAware
10:29AM -15.9780 -47.9710 266° West 224 258 11,900 -2,580 Level FlightAware
10:30AM -15.9810 -48.0300 267° West 252 290 8,900 -2,400 Descending FlightAware
10:30AM -15.9840 -48.0710 266° West 252 290 8,900 -1,080 Level FlightAware
10:32AM -15.9220 -48.1380 314° West 232 267 6,400 -1,260 Descending FlightAware
10:33AM -15.8920 -48.0960 53° Northeast 224 258 6,000 -480 Descending FlightAware
10:33AM -15.8870 -48.0550 83° East 205 236 5,800 -720 Descending FlightAware
10:34AM -15.8840 -48.0030 87° East 203 234 4,800 -1,080 Descending FlightAware
10:36AM -15.8800 -47.9240 76° East 84 97 -2,460 Descending FlightAware
10:37AM -15.8626 -47.9127 76° East  Level Estimated
10:37AM -15.8790 -47.9160 83° East 84 97  Level FlightAware
10:40AM -15.8626 -47.9127 11° North  Level Estimated
10:41AM -15.8626 -47.9127 128° Southeast  Level Estimated
10:42AM -15.8626 -47.9127 128° Southeast  Level Estimated
10:43AM -15.8626 -47.9127 128° Southeast  Level Estimated
10:44AM -15.8626 -47.9127 128° Southeast  Level Estimated
10:47AM -15.8626 -47.9127 67° East  Level Estimated
10:48AM -15.8626 -47.9127 128° Southeast  Level Estimated
10:49AM -15.8626 -47.9127 128° Southeast  Level Estimated
10:50AM -15.8626 -47.9127 128° Southeast  Level Estimated
10:51AM -15.8626 -47.9127 128° Southeast  Level Estimated
10:52AM -15.8626 -47.9127 128° Southeast  Level Estimated
10:53AM -15.8626 -47.9127 128° Southeast  Level Estimated